createdAt,value
2019-03-17T00:01:13.005Z,72.76
2019-03-17T00:11:14.098Z,73.04
2019-03-17T00:21:12.935Z,71.96
2019-03-17T00:31:23.303Z,72.57
2019-03-17T00:41:12.947Z,72.42
2019-03-17T00:51:13.970Z,72.82
2019-03-17T01:01:12.929Z,72.14
2019-03-17T01:11:12.947Z,72.54
2019-03-17T01:21:12.954Z,72.20
2019-03-17T01:31:12.785Z,73.19
2019-03-17T01:41:13.860Z,74.41
2019-03-17T01:51:12.887Z,74.55
2019-03-17T02:01:20.174Z,74.54
2019-03-17T02:11:12.919Z,74.79
2019-03-17T02:41:14.681Z,75.71
2019-03-17T02:51:14.149Z,75.09
2019-03-17T03:01:14.189Z,74.30
2019-03-17T03:11:14.021Z,72.38
2019-03-17T03:21:14.173Z,73.50
2019-03-17T03:31:14.139Z,74.44
2019-03-17T03:41:14.168Z,75.44
2019-03-17T03:51:14.179Z,76.02
2019-03-17T04:01:14.247Z,76.00
2019-03-17T04:11:14.143Z,76.41
2019-03-17T04:21:14.142Z,76.26
2019-03-17T04:31:14.684Z,77.00
2019-03-17T04:41:14.139Z,80.51
2019-03-17T04:51:14.152Z,83.81
2019-03-17T05:01:14.220Z,84.02
2019-03-17T05:11:14.207Z,83.48
2019-03-17T05:21:14.234Z,84.67
2019-03-17T05:31:14.176Z,86.66
2019-03-17T05:41:14.184Z,88.88
2019-03-17T05:51:14.116Z,90.65
2019-03-17T06:01:14.140Z,91.43
2019-03-17T06:11:14.172Z,93.57
2019-03-17T06:21:14.096Z,93.66
2019-03-17T06:31:14.137Z,93.71
2019-03-17T06:41:14.181Z,94.41
2019-03-17T06:51:14.142Z,95.40
2019-03-17T07:01:14.173Z,95.01
2019-03-17T07:11:15.151Z,94.94
2019-03-17T07:21:14.146Z,91.81
2019-03-17T07:31:15.149Z,89.87
2019-03-17T07:41:15.289Z,89.18
2019-03-17T07:51:14.117Z,89.00
2019-03-17T08:01:14.107Z,89.90
2019-03-17T08:11:14.595Z,89.51
2019-03-17T08:21:14.146Z,88.32
2019-03-17T08:31:14.157Z,89.21
2019-03-17T08:41:14.098Z,88.95
2019-03-17T08:51:14.172Z,88.42
2019-03-17T09:01:14.123Z,87.64
2019-03-17T09:11:14.111Z,86.04
2019-03-17T09:21:14.103Z,85.26
2019-03-17T09:31:14.086Z,82.37
2019-03-17T09:41:14.148Z,80.25
2019-03-17T09:51:14.128Z,80.85
2019-03-17T10:01:14.073Z,81.75
2019-03-17T10:11:14.085Z,81.17
2019-03-17T10:21:13.961Z,76.79
2019-03-17T10:31:14.291Z,68.59
2019-03-17T10:41:14.117Z,71.65
2019-03-17T10:51:14.080Z,69.08
2019-03-17T11:01:14.131Z,70.31
2019-03-17T11:11:14.760Z,66.45
2019-03-17T11:21:14.106Z,63.65
2019-03-17T11:31:15.061Z,62.71
2019-03-17T11:41:14.029Z,57.12
2019-03-17T11:51:14.214Z,55.53
2019-03-17T12:01:17.890Z,51.37
2019-03-17T12:11:14.196Z,50.74
2019-03-17T12:21:13.996Z,48.52
2019-03-17T12:31:14.120Z,49.51
2019-03-17T12:41:14.143Z,52.62
2019-03-17T12:51:14.108Z,53.85
2019-03-17T13:01:14.131Z,58.26
2019-03-17T13:11:14.047Z,49.09
2019-03-17T13:21:14.097Z,45.74
2019-03-17T13:31:14.133Z,47.39
2019-03-17T13:41:14.124Z,55.52
2019-03-17T13:51:14.064Z,59.88
2019-03-17T14:01:14.079Z,60.52
2019-03-17T14:11:14.123Z,63.37
2019-03-17T14:21:14.143Z,65.76
2019-03-17T14:31:14.145Z,64.94
2019-03-17T14:41:14.124Z,67.93
2019-03-17T14:51:14.795Z,65.48
2019-03-17T15:01:14.108Z,67.30
2019-03-17T15:11:14.162Z,65.20
2019-03-17T15:21:14.184Z,66.52
2019-03-17T15:31:13.984Z,69.23
2019-03-17T15:41:18.776Z,72.26
2019-03-17T15:51:20.414Z,78.38
2019-03-17T16:01:14.144Z,79.18
2019-03-17T16:11:14.209Z,82.34
2019-03-17T16:21:14.036Z,84.76
2019-03-17T16:31:14.098Z,81.53
2019-03-17T16:41:14.046Z,83.93
2019-03-17T16:51:13.985Z,85.74
2019-03-17T17:01:14.079Z,85.80
2019-03-17T17:11:14.031Z,85.41
2019-03-17T17:21:14.060Z,84.97
2019-03-17T17:31:14.052Z,85.99
2019-03-17T17:41:14.017Z,91.51
2019-03-17T17:51:14.118Z,94.30
2019-03-17T18:01:14.148Z,95.10
2019-03-17T18:11:14.008Z,96.80
2019-03-17T18:21:14.058Z,97.41
2019-03-17T18:31:14.066Z,97.05
2019-03-17T18:41:14.016Z,95.38
2019-03-17T18:51:14.018Z,94.06
2019-03-17T19:01:14.009Z,92.38
2019-03-17T19:11:14.032Z,92.18
2019-03-17T19:21:13.962Z,91.09
2019-03-17T19:31:13.949Z,90.76
2019-03-17T19:41:14.016Z,89.64
2019-03-17T19:51:14.010Z,89.09
2019-03-17T20:01:14.839Z,88.82
2019-03-17T20:11:14.063Z,87.76
2019-03-17T20:21:14.036Z,87.50
2019-03-17T20:31:14.016Z,86.75
2019-03-17T20:41:13.996Z,86.18
2019-03-17T20:51:14.023Z,85.66
2019-03-17T21:01:13.954Z,85.31
2019-03-17T21:11:13.999Z,86.40
2019-03-17T21:21:14.030Z,87.67
2019-03-17T21:31:14.020Z,87.54
2019-03-17T21:41:14.041Z,87.91
2019-03-17T21:51:13.942Z,87.83
2019-03-17T22:01:14.044Z,88.11
2019-03-17T22:11:14.029Z,88.18
2019-03-17T22:21:14.607Z,88.95
2019-03-17T22:31:13.984Z,89.31
2019-03-17T22:41:14.676Z,89.63
2019-03-17T22:51:14.009Z,89.31
2019-03-17T23:01:13.978Z,88.71
2019-03-17T23:11:14.060Z,88.80
2019-03-17T23:21:13.936Z,89.12
2019-03-17T23:31:13.947Z,89.94
2019-03-17T23:41:13.986Z,90.15
2019-03-17T23:51:14.008Z,90.17
